PWSweather.com
Personal Weather Stations
Station Observations
PENICUIKWS
PenicuikGB

PenicuikGB

Lat: 55.830932, Lon: -3.224533000000065

Elevation: 166

Station Type: Fine Offset

http://weather.penicuik.org

High Low Average
Temperature 42.6°F5.9°C 34.7°F1.5°C 39.2°F4.0°C
Dew Point 39.9°F4.4°C 29.4°F-1.4°C 36.5°F2.5°C
Winds 6.9 mph 11.1 kmh Calm Calm 2.0 mph SW3.2 kmh SW
Wind Gusts 11.4 mph18.3 kmh -- 3.0 mph4.8 kmh
Humidity 94% 78% 90%
Pressure 29.83 in1010.2 mb 29.48 in998.3 mb -
Precipitation 0.05 in1.3 mm - -
Hour Temp Dew Point Humidity Winds Wind Gusts Pressure Precip Precip Rate Daily Precip Total
07:31 AM 34.9°F1.6°C 30.2°F-1.0°C 83% Calm Calm -- 29.65 in1004.1 mb 0.00 in0.0 mm 0.00 in0.0 mm 0.01 in0.3 mm
07:32 AM 38.1°F3.4°C 36.5°F2.5°C 94% 1.6 mph N2.6 kmh N 1.6 mph2.6 kmh 29.53 in1000.0 mb 0.02 in0.5 mm 1.20 in30.5 mm 0.04 in1.0 mm
07:45 AM 38.1°F3.4°C 36.6°F2.6°C 94% 2.9 mph W4.7 kmh W 6.0 mph9.7 kmh 29.61 in1002.7 mb 0.00 in0.0 mm 0.00 in0.0 mm 0.04 in1.0 mm
08:15 AM 37.8°F3.2°C 36.2°F2.3°C 94% 1.5 mph SE2.4 kmh SE 2.2 mph3.5 kmh 29.63 in1003.4 mb 0.00 in0.0 mm 0.00 in0.0 mm 0.04 in1.0 mm
08:30 AM 38.1°F3.4°C 36.6°F2.6°C 94% 1.2 mph SW1.9 kmh SW 3.1 mph5.0 kmh 29.63 in1003.4 mb 0.00 in0.0 mm 0.00 in0.0 mm 0.04 in1.0 mm
08:45 AM 38.1°F3.4°C 36.6°F2.6°C 94% 1.4 mph WSW2.3 kmh WSW 2.2 mph3.5 kmh 29.62 in1003.0 mb 0.00 in0.0 mm 0.00 in0.0 mm 0.04 in1.0 mm
09:00 AM 38.1°F3.4°C 36.6°F2.6°C 94% 1.7 mph NNW2.7 kmh NNW 3.1 mph5.0 kmh 29.64 in1003.7 mb 0.00 in0.0 mm 0.00 in0.0 mm 0.04 in1.0 mm
09:15 AM 38.3°F3.5°C 36.7°F2.6°C 94% 1.2 mph N1.9 kmh N 3.1 mph5.0 kmh 29.63 in1003.4 mb 0.00 in0.0 mm 0.00 in0.0 mm 0.04 in1.0 mm
09:30 AM 38.8°F3.8°C 37.3°F2.9°C 94% 2.0 mph S3.2 kmh S 4.5 mph7.2 kmh 29.65 in1004.1 mb 0.00 in0.0 mm 0.00 in0.0 mm 0.04 in1.0 mm
09:45 AM 38.8°F3.8°C 37.3°F2.9°C 94% 1.1 mph NW1.8 kmh NW 4.5 mph7.2 kmh 29.65 in1004.1 mb 0.00 in0.0 mm 0.00 in0.0 mm 0.04 in1.0 mm
10:00 AM 39.0°F3.9°C 37.4°F3.0°C 94% 1.3 mph WNW2.1 kmh WNW 2.2 mph3.5 kmh 29.65 in1004.1 mb 0.00 in0.0 mm 0.00 in0.0 mm 0.04 in1.0 mm
10:15 AM 40.3°F4.6°C 38.7°F3.7°C 94% 2.1 mph W3.4 kmh W 5.4 mph8.7 kmh 29.65 in1004.1 mb 0.00 in0.0 mm 0.00 in0.0 mm 0.04 in1.0 mm
10:30 AM 40.3°F4.6°C 38.7°F3.7°C 94% 2.2 mph WSW3.5 kmh WSW 4.5 mph7.2 kmh 29.66 in1004.4 mb 0.00 in0.0 mm 0.00 in0.0 mm 0.04 in1.0 mm
10:45 AM 39.9°F4.4°C 38.3°F3.5°C 94% 2.1 mph S3.4 kmh S 3.1 mph5.0 kmh 29.67 in1004.7 mb 0.00 in0.0 mm 0.00 in0.0 mm 0.04 in1.0 mm
11:00 AM 39.9°F4.4°C 38.1°F3.4°C 93% 2.0 mph W3.2 kmh W 4.5 mph7.2 kmh 29.68 in1005.1 mb 0.00 in0.0 mm 0.00 in0.0 mm 0.04 in1.0 mm
11:15 AM 39.9°F4.4°C 38.1°F3.4°C 93% 2.0 mph SE3.2 kmh SE 3.1 mph5.0 kmh 29.69 in1005.4 mb 0.00 in0.0 mm 0.00 in0.0 mm 0.04 in1.0 mm
11:45 AM 41.5°F5.3°C 39.4°F4.1°C 92% 2.0 mph NNW3.2 kmh NNW 3.1 mph5.0 kmh 29.68 in1005.1 mb 0.00 in0.0 mm 0.00 in0.0 mm 0.04 in1.0 mm
12:00 PM 41.9°F5.5°C 39.7°F4.3°C 92% 2.2 mph SW3.5 kmh SW 3.8 mph6.1 kmh 29.69 in1005.4 mb 0.00 in0.0 mm 0.00 in0.0 mm 0.04 in1.0 mm
12:15 PM 42.1°F5.6°C 39.9°F4.4°C 92% 1.9 mph WNW3.1 kmh WNW 3.1 mph5.0 kmh 29.69 in1005.4 mb 0.00 in0.0 mm 0.00 in0.0 mm 0.04 in1.0 mm
12:30 PM 42.1°F5.6°C 39.6°F4.2°C 91% 3.2 mph NE5.1 kmh NE 6.0 mph9.7 kmh 29.70 in1005.8 mb 0.00 in0.0 mm 0.00 in0.0 mm 0.04 in1.0 mm
12:45 PM 42.1°F5.6°C 39.4°F4.1°C 90% 2.0 mph SW3.2 kmh SW 5.4 mph8.7 kmh 29.70 in1005.8 mb 0.00 in0.0 mm 0.00 in0.0 mm 0.04 in1.0 mm
01:00 PM 42.3°F5.7°C 39.3°F4.1°C 89% 4.3 mph WSW6.9 kmh WSW 11.4 mph18.3 kmh 29.70 in1005.8 mb 0.01 in0.3 mm 0.01 in0.3 mm 0.05 in1.3 mm
01:15 PM 42.6°F5.9°C 39.0°F3.9°C 87% 2.9 mph NW4.7 kmh NW 5.4 mph8.7 kmh 29.71 in1006.1 mb 0.01 in0.3 mm 0.00 in0.0 mm 0.05 in1.3 mm
01:30 PM 42.4°F5.8°C 38.6°F3.7°C 86% 3.9 mph SW6.3 kmh SW 8.3 mph13.4 kmh 29.72 in1006.4 mb 0.01 in0.3 mm 0.00 in0.0 mm 0.05 in1.3 mm
01:45 PM 42.6°F5.9°C 38.7°F3.7°C 86% 5.1 mph SW8.2 kmh SW 7.6 mph12.2 kmh 29.72 in1006.4 mb 0.01 in0.3 mm 0.00 in0.0 mm 0.05 in1.3 mm
02:00 PM 42.3°F5.7°C 38.1°F3.4°C 85% 2.6 mph S4.2 kmh S 5.4 mph8.7 kmh 29.73 in1006.8 mb 0.00 in0.0 mm 0.00 in0.0 mm 0.05 in1.3 mm
02:15 PM 41.9°F5.5°C 38.0°F3.3°C 86% 1.9 mph SSE3.1 kmh SSE 3.8 mph6.1 kmh 29.73 in1006.8 mb 0.00 in0.0 mm 0.00 in0.0 mm 0.05 in1.3 mm
02:30 PM 41.4°F5.2°C 37.5°F3.1°C 86% 2.0 mph E3.2 kmh E 3.8 mph6.1 kmh 29.73 in1006.8 mb 0.00 in0.0 mm 0.00 in0.0 mm 0.05 in1.3 mm
02:45 PM 41.5°F5.3°C 38.0°F3.3°C 87% 2.6 mph W4.2 kmh W 5.4 mph8.7 kmh 29.73 in1006.8 mb 0.00 in0.0 mm 0.00 in0.0 mm 0.05 in1.3 mm
03:00 PM 41.5°F5.3°C 38.3°F3.5°C 88% 2.9 mph WNW4.7 kmh WNW 4.5 mph7.2 kmh 29.73 in1006.8 mb 0.00 in0.0 mm 0.00 in0.0 mm 0.05 in1.3 mm
03:15 PM 41.4°F5.2°C 38.1°F3.4°C 88% 3.7 mph WSW6.0 kmh WSW 7.6 mph12.2 kmh 29.73 in1006.8 mb 0.00 in0.0 mm 0.00 in0.0 mm 0.05 in1.3 mm
04:00 PM 41.0°F5.0°C 38.0°F3.3°C 89% 2.3 mph ENE3.7 kmh ENE 3.8 mph6.1 kmh 29.75 in1007.5 mb 0.00 in0.0 mm 0.00 in0.0 mm 0.05 in1.3 mm
04:15 PM 40.8°F4.9°C 38.1°F3.4°C 90% 1.4 mph W2.3 kmh W 2.2 mph3.5 kmh 29.75 in1007.5 mb 0.00 in0.0 mm 0.00 in0.0 mm 0.05 in1.3 mm
04:30 PM 40.3°F4.6°C 37.6°F3.1°C 90% 2.7 mph S4.3 kmh S 5.4 mph8.7 kmh 29.77 in1008.1 mb 0.00 in0.0 mm 0.00 in0.0 mm 0.05 in1.3 mm
04:45 PM 40.6°F4.8°C 37.9°F3.3°C 90% 2.7 mph WSW4.3 kmh WSW 4.5 mph7.2 kmh 29.78 in1008.5 mb 0.00 in0.0 mm 0.00 in0.0 mm 0.05 in1.3 mm
05:00 PM 40.1°F4.5°C 37.4°F3.0°C 90% 1.8 mph W2.9 kmh W 3.1 mph5.0 kmh 29.79 in1008.8 mb 0.00 in0.0 mm 0.00 in0.0 mm 0.05 in1.3 mm
05:15 PM 40.3°F4.6°C 37.6°F3.1°C 90% 1.7 mph SW2.7 kmh SW 3.8 mph6.1 kmh 29.78 in1008.5 mb 0.00 in0.0 mm 0.00 in0.0 mm 0.05 in1.3 mm
05:30 PM 40.3°F4.6°C 37.6°F3.1°C 90% 2.5 mph NNE4.0 kmh NNE 4.5 mph7.2 kmh 29.79 in1008.8 mb 0.00 in0.0 mm 0.00 in0.0 mm 0.05 in1.3 mm
05:45 PM 40.3°F4.6°C 37.9°F3.3°C 91% 2.7 mph NW4.3 kmh NW 5.4 mph8.7 kmh 29.80 in1009.1 mb 0.00 in0.0 mm 0.00 in0.0 mm 0.05 in1.3 mm
06:00 PM 40.6°F4.8°C 38.2°F3.4°C 91% 2.3 mph SSW3.7 kmh SSW 3.8 mph6.1 kmh 29.80 in1009.1 mb 0.00 in0.0 mm 0.00 in0.0 mm 0.05 in1.3 mm
06:30 PM 41.0°F5.0°C 38.3°F3.5°C 90% 3.1 mph S5.0 kmh S 4.5 mph7.2 kmh 29.81 in1009.5 mb 0.00 in0.0 mm 0.00 in0.0 mm 0.05 in1.3 mm
06:45 PM 41.2°F5.1°C 38.5°F3.6°C 90% 1.8 mph NW2.9 kmh NW 2.2 mph3.5 kmh 29.81 in1009.5 mb 0.00 in0.0 mm 0.00 in0.0 mm 0.05 in1.3 mm
07:00 PM 41.0°F5.0°C 38.0°F3.3°C 89% 1.7 mph N2.7 kmh N 3.8 mph6.1 kmh 29.82 in1009.8 mb 0.00 in0.0 mm 0.00 in0.0 mm 0.05 in1.3 mm
07:15 PM 40.8°F4.9°C 38.1°F3.4°C 90% 2.3 mph WSW3.7 kmh WSW 4.5 mph7.2 kmh 29.82 in1009.8 mb 0.00 in0.0 mm 0.00 in0.0 mm 0.05 in1.3 mm
07:30 PM 41.2°F5.1°C 38.5°F3.6°C 90% 1.9 mph SW3.1 kmh SW 3.1 mph5.0 kmh 29.83 in1010.2 mb 0.00 in0.0 mm 0.00 in0.0 mm 0.05 in1.3 mm
07:45 PM 41.2°F5.1°C 38.2°F3.4°C 89% 2.6 mph NW4.2 kmh NW 6.0 mph9.7 kmh 29.82 in1009.8 mb 0.00 in0.0 mm 0.00 in0.0 mm 0.05 in1.3 mm
08:00 PM 41.0°F5.0°C 38.0°F3.3°C 89% 3.2 mph WNW5.1 kmh WNW 6.0 mph9.7 kmh 29.83 in1010.2 mb 0.00 in0.0 mm 0.00 in0.0 mm 0.05 in1.3 mm
08:15 PM 41.0°F5.0°C 38.0°F3.3°C 89% 1.2 mph W1.9 kmh W 3.1 mph5.0 kmh 29.83 in1010.2 mb 0.00 in0.0 mm 0.00 in0.0 mm 0.05 in1.3 mm
08:30 PM 41.2°F5.1°C 38.2°F3.4°C 89% 1.8 mph N2.9 kmh N 3.8 mph6.1 kmh 29.83 in1010.2 mb 0.00 in0.0 mm 0.00 in0.0 mm 0.05 in1.3 mm
08:45 PM 40.8°F4.9°C 37.8°F3.2°C 89% 1.1 mph WNW1.8 kmh WNW 1.6 mph2.6 kmh 29.83 in1010.2 mb 0.00 in0.0 mm 0.00 in0.0 mm 0.05 in1.3 mm
09:00 PM 39.9°F4.4°C 36.7°F2.6°C 88% 1.2 mph NNW1.9 kmh NNW 2.2 mph3.5 kmh 29.83 in1010.2 mb 0.00 in0.0 mm 0.00 in0.0 mm 0.05 in1.3 mm
09:15 PM 39.7°F4.3°C 36.5°F2.5°C 88% 0.8 mph W1.3 kmh W 2.2 mph3.5 kmh 29.83 in1010.2 mb 0.00 in0.0 mm 0.00 in0.0 mm 0.05 in1.3 mm
09:30 PM 39.7°F4.3°C 36.8°F2.7°C 89% 1.4 mph NNW2.3 kmh NNW 2.2 mph3.5 kmh 29.82 in1009.8 mb 0.00 in0.0 mm 0.00 in0.0 mm 0.05 in1.3 mm
09:45 PM 40.1°F4.5°C 37.1°F2.8°C 89% 1.4 mph WNW2.3 kmh WNW 4.5 mph7.2 kmh 29.83 in1010.2 mb 0.00 in0.0 mm 0.00 in0.0 mm 0.05 in1.3 mm
10:00 PM 39.7°F4.3°C 36.5°F2.5°C 88% 0.1 mph W0.2 kmh W 0.7 mph1.1 kmh 29.82 in1009.8 mb 0.00 in0.0 mm 0.00 in0.0 mm 0.05 in1.3 mm
10:30 PM 39.7°F4.3°C 36.8°F2.7°C 89% 0.3 mph W0.5 kmh W 1.6 mph2.6 kmh 29.81 in1009.5 mb 0.00 in0.0 mm 0.00 in0.0 mm 0.05 in1.3 mm
10:45 PM 39.7°F4.3°C 36.8°F2.7°C 89% 0.8 mph NW1.3 kmh NW 2.2 mph3.5 kmh 29.81 in1009.5 mb 0.00 in0.0 mm 0.00 in0.0 mm 0.05 in1.3 mm
11:00 PM 39.9°F4.4°C 36.9°F2.7°C 89% 1.2 mph SSE1.9 kmh SSE 1.6 mph2.6 kmh 29.82 in1009.8 mb 0.00 in0.0 mm 0.00 in0.0 mm 0.05 in1.3 mm
11:15 PM 39.9°F4.4°C 36.9°F2.7°C 89% 0.7 mph N1.1 kmh N 1.6 mph2.6 kmh 29.81 in1009.5 mb 0.00 in0.0 mm 0.00 in0.0 mm 0.05 in1.3 mm
11:30 PM 40.8°F4.9°C 37.8°F3.2°C 89% 1.6 mph N2.6 kmh N 3.8 mph6.1 kmh 29.81 in1009.5 mb 0.00 in0.0 mm 0.00 in0.0 mm 0.05 in1.3 mm
11:45 PM 41.4°F5.2°C 38.1°F3.4°C 88% 2.9 mph NNE4.7 kmh NNE 8.3 mph13.4 kmh 29.80 in1009.1 mb 0.00 in0.0 mm 0.00 in0.0 mm 0.05 in1.3 mm